sensor_id;sensor_type;location;lat;lon;timestamp;P1;durP1;ratioP1;P2;durP2;ratioP2
54263;SDS011;40178;53.042;6.406;2024-02-15T00:00:21;63.75;;;20.70;;
54263;SDS011;40178;53.042;6.406;2024-02-15T00:02:47;54.80;;;20.02;;
54263;SDS011;40178;53.042;6.406;2024-02-15T00:05:13;57.05;;;19.63;;
54263;SDS011;40178;53.042;6.406;2024-02-15T00:07:42;58.20;;;20.38;;
54263;SDS011;40178;53.042;6.406;2024-02-15T00:10:09;62.05;;;19.25;;
54263;SDS011;40178;53.042;6.406;2024-02-15T00:12:35;48.60;;;19.15;;
54263;SDS011;40178;53.042;6.406;2024-02-15T00:15:01;44.38;;;17.80;;
54263;SDS011;40178;53.042;6.406;2024-02-15T00:17:29;48.65;;;18.55;;
54263;SDS011;40178;53.042;6.406;2024-02-15T00:19:55;52.92;;;18.95;;
54263;SDS011;40178;53.042;6.406;2024-02-15T00:22:21;47.58;;;18.35;;
54263;SDS011;40178;53.042;6.406;2024-02-15T00:24:47;50.13;;;17.83;;
54263;SDS011;40178;53.042;6.406;2024-02-15T00:27:14;49.40;;;17.35;;
54263;SDS011;40178;53.042;6.406;2024-02-15T00:29:40;49.85;;;18.77;;
54263;SDS011;40178;53.042;6.406;2024-02-15T00:32:06;50.17;;;18.38;;
54263;SDS011;40178;53.042;6.406;2024-02-15T00:34:32;56.53;;;18.15;;
54263;SDS011;40178;53.042;6.406;2024-02-15T00:36:58;50.58;;;18.40;;
54263;SDS011;40178;53.042;6.406;2024-02-15T00:39:24;54.28;;;18.30;;
54263;SDS011;40178;53.042;6.406;2024-02-15T00:41:50;67.80;;;19.70;;
54263;SDS011;40178;53.042;6.406;2024-02-15T00:44:16;46.03;;;18.65;;
54263;SDS011;40178;53.042;6.406;2024-02-15T00:46:42;50.05;;;18.50;;
54263;SDS011;40178;53.042;6.406;2024-02-15T00:49:08;47.75;;;17.02;;
54263;SDS011;40178;53.042;6.406;2024-02-15T00:51:37;46.78;;;15.90;;
54263;SDS011;40178;53.042;6.406;2024-02-15T00:54:03;41.83;;;15.73;;
54263;SDS011;40178;53.042;6.406;2024-02-15T00:56:28;46.80;;;17.15;;
54263;SDS011;40178;53.042;6.406;2024-02-15T00:59:00;44.97;;;17.70;;
54263;SDS011;40178;53.042;6.406;2024-02-15T01:01:26;43.55;;;17.08;;
54263;SDS011;40178;53.042;6.406;2024-02-15T01:03:52;43.92;;;16.13;;
54263;SDS011;40178;53.042;6.406;2024-02-15T01:06:17;44.90;;;18.35;;
54263;SDS011;40178;53.042;6.406;2024-02-15T01:08:43;39.22;;;15.27;;
54263;SDS011;40178;53.042;6.406;2024-02-15T01:11:09;42.25;;;15.68;;
54263;SDS011;40178;53.042;6.406;2024-02-15T01:13:35;44.72;;;17.13;;
54263;SDS011;40178;53.042;6.406;2024-02-15T01:16:00;41.80;;;15.88;;
54263;SDS011;40178;53.042;6.406;2024-02-15T01:18:28;43.30;;;15.18;;
54263;SDS011;40178;53.042;6.406;2024-02-15T01:20:55;37.60;;;13.73;;
54263;SDS011;40178;53.042;6.406;2024-02-15T01:23:21;36.28;;;13.98;;
54263;SDS011;40178;53.042;6.406;2024-02-15T01:25:47;34.35;;;14.88;;
54263;SDS011;40178;53.042;6.406;2024-02-15T01:28:13;35.20;;;14.48;;
54263;SDS011;40178;53.042;6.406;2024-02-15T01:30:39;35.70;;;13.05;;
54263;SDS011;40178;53.042;6.406;2024-02-15T01:33:05;26.98;;;12.45;;
54263;SDS011;40178;53.042;6.406;2024-02-15T01:35:31;27.00;;;12.38;;
54263;SDS011;40178;53.042;6.406;2024-02-15T01:37:56;28.05;;;11.75;;
54263;SDS011;40178;53.042;6.406;2024-02-15T01:40:22;31.90;;;12.13;;
54263;SDS011;40178;53.042;6.406;2024-02-15T01:42:47;27.17;;;11.63;;
54263;SDS011;40178;53.042;6.406;2024-02-15T01:45:15;31.40;;;12.18;;
54263;SDS011;40178;53.042;6.406;2024-02-15T01:47:41;28.95;;;12.60;;
54263;SDS011;40178;53.042;6.406;2024-02-15T01:50:08;32.00;;;11.45;;
54263;SDS011;40178;53.042;6.406;2024-02-15T01:52:37;23.02;;;10.85;;
54263;SDS011;40178;53.042;6.406;2024-02-15T01:55:03;25.25;;;11.15;;
54263;SDS011;40178;53.042;6.406;2024-02-15T01:57:33;21.52;;;9.80;;
54263;SDS011;40178;53.042;6.406;2024-02-15T02:00:00;23.17;;;9.00;;
54263;SDS011;40178;53.042;6.406;2024-02-15T02:02:27;23.48;;;9.48;;
54263;SDS011;40178;53.042;6.406;2024-02-15T02:04:57;22.63;;;9.30;;
54263;SDS011;40178;53.042;6.406;2024-02-15T02:07:23;20.63;;;8.52;;
54263;SDS011;40178;53.042;6.406;2024-02-15T02:09:49;23.05;;;8.88;;
54263;SDS011;40178;53.042;6.406;2024-02-15T02:12:14;17.55;;;7.45;;
54263;SDS011;40178;53.042;6.406;2024-02-15T02:14:41;16.23;;;7.85;;
54263;SDS011;40178;53.042;6.406;2024-02-15T02:17:10;23.23;;;7.95;;
54263;SDS011;40178;53.042;6.406;2024-02-15T02:19:39;18.10;;;7.38;;
54263;SDS011;40178;53.042;6.406;2024-02-15T02:22:07;18.35;;;7.57;;
54263;SDS011;40178;53.042;6.406;2024-02-15T02:24:36;18.65;;;7.70;;
54263;SDS011;40178;53.042;6.406;2024-02-15T02:27:10;21.75;;;8.25;;
54263;SDS011;40178;53.042;6.406;2024-02-15T02:29:42;16.35;;;6.22;;
54263;SDS011;40178;53.042;6.406;2024-02-15T02:32:10;16.00;;;7.28;;
54263;SDS011;40178;53.042;6.406;2024-02-15T02:34:36;20.00;;;7.60;;
54263;SDS011;40178;53.042;6.406;2024-02-15T02:37:02;19.92;;;8.25;;
54263;SDS011;40178;53.042;6.406;2024-02-15T02:39:30;17.38;;;7.57;;
54263;SDS011;40178;53.042;6.406;2024-02-15T02:41:56;19.63;;;7.10;;
54263;SDS011;40178;53.042;6.406;2024-02-15T02:44:23;17.35;;;7.65;;
54263;SDS011;40178;53.042;6.406;2024-02-15T02:46:48;17.75;;;7.70;;
54263;SDS011;40178;53.042;6.406;2024-02-15T02:49:14;21.33;;;7.97;;
54263;SDS011;40178;53.042;6.406;2024-02-15T02:51:39;18.25;;;7.70;;
54263;SDS011;40178;53.042;6.406;2024-02-15T02:54:05;26.42;;;9.30;;
54263;SDS011;40178;53.042;6.406;2024-02-15T02:56:31;25.58;;;8.73;;
54263;SDS011;40178;53.042;6.406;2024-02-15T02:58:57;18.85;;;8.00;;
54263;SDS011;40178;53.042;6.406;2024-02-15T03:01:23;24.30;;;9.18;;
54263;SDS011;40178;53.042;6.406;2024-02-15T03:03:53;20.23;;;8.60;;
54263;SDS011;40178;53.042;6.406;2024-02-15T03:06:21;30.85;;;9.25;;
54263;SDS011;40178;53.042;6.406;2024-02-15T03:08:49;22.55;;;8.25;;
54263;SDS011;40178;53.042;6.406;2024-02-15T03:11:19;29.42;;;8.65;;
54263;SDS011;40178;53.042;6.406;2024-02-15T03:13:45;23.05;;;8.88;;
54263;SDS011;40178;53.042;6.406;2024-02-15T03:16:11;31.05;;;10.18;;
54263;SDS011;40178;53.042;6.406;2024-02-15T03:18:36;22.48;;;9.18;;
54263;SDS011;40178;53.042;6.406;2024-02-15T03:21:02;24.88;;;9.13;;
54263;SDS011;40178;53.042;6.406;2024-02-15T03:23:29;22.92;;;9.05;;
54263;SDS011;40178;53.042;6.406;2024-02-15T03:25:55;34.28;;;9.65;;
54263;SDS011;40178;53.042;6.406;2024-02-15T03:28:21;23.00;;;9.23;;
54263;SDS011;40178;53.042;6.406;2024-02-15T03:30:48;26.45;;;9.48;;
54263;SDS011;40178;53.042;6.406;2024-02-15T03:33:15;21.58;;;9.20;;
54263;SDS011;40178;53.042;6.406;2024-02-15T03:35:40;26.88;;;9.50;;
54263;SDS011;40178;53.042;6.406;2024-02-15T03:38:06;28.38;;;11.15;;
54263;SDS011;40178;53.042;6.406;2024-02-15T03:40:32;29.65;;;9.93;;
54263;SDS011;40178;53.042;6.406;2024-02-15T03:42:58;23.10;;;9.02;;
54263;SDS011;40178;53.042;6.406;2024-02-15T03:45:24;26.13;;;9.20;;
54263;SDS011;40178;53.042;6.406;2024-02-15T03:47:53;25.15;;;9.60;;
54263;SDS011;40178;53.042;6.406;2024-02-15T03:50:20;25.92;;;10.95;;
54263;SDS011;40178;53.042;6.406;2024-02-15T03:52:46;25.45;;;11.10;;
54263;SDS011;40178;53.042;6.406;2024-02-15T03:55:13;30.00;;;10.73;;
54263;SDS011;40178;53.042;6.406;2024-02-15T03:57:39;33.55;;;12.00;;
54263;SDS011;40178;53.042;6.406;2024-02-15T04:00:06;31.60;;;11.82;;
54263;SDS011;40178;53.042;6.406;2024-02-15T04:02:33;38.38;;;13.18;;
54263;SDS011;40178;53.042;6.406;2024-02-15T04:05:00;28.60;;;12.82;;
54263;SDS011;40178;53.042;6.406;2024-02-15T04:07:26;40.63;;;13.63;;
54263;SDS011;40178;53.042;6.406;2024-02-15T04:09:52;31.70;;;13.55;;
54263;SDS011;40178;53.042;6.406;2024-02-15T04:12:18;31.77;;;13.48;;
54263;SDS011;40178;53.042;6.406;2024-02-15T04:14:44;32.60;;;13.25;;
54263;SDS011;40178;53.042;6.406;2024-02-15T04:17:10;32.22;;;12.75;;
54263;SDS011;40178;53.042;6.406;2024-02-15T04:19:40;33.72;;;12.80;;
54263;SDS011;40178;53.042;6.406;2024-02-15T04:22:06;36.97;;;12.77;;
54263;SDS011;40178;53.042;6.406;2024-02-15T04:24:35;32.53;;;13.30;;
54263;SDS011;40178;53.042;6.406;2024-02-15T04:27:05;35.70;;;13.82;;
54263;SDS011;40178;53.042;6.406;2024-02-15T04:29:33;38.83;;;14.57;;
54263;SDS011;40178;53.042;6.406;2024-02-15T04:31:59;28.60;;;12.38;;
54263;SDS011;40178;53.042;6.406;2024-02-15T04:34:25;34.72;;;14.63;;
54263;SDS011;40178;53.042;6.406;2024-02-15T04:36:51;33.38;;;14.50;;
54263;SDS011;40178;53.042;6.406;2024-02-15T04:39:20;39.67;;;15.57;;
54263;SDS011;40178;53.042;6.406;2024-02-15T04:41:52;36.88;;;15.55;;
54263;SDS011;40178;53.042;6.406;2024-02-15T04:44:18;38.47;;;15.68;;
54263;SDS011;40178;53.042;6.406;2024-02-15T04:46:51;39.22;;;16.88;;
54263;SDS011;40178;53.042;6.406;2024-02-15T04:49:17;44.53;;;18.90;;
54263;SDS011;40178;53.042;6.406;2024-02-15T04:51:43;41.00;;;18.15;;
54263;SDS011;40178;53.042;6.406;2024-02-15T04:54:09;45.42;;;17.48;;
54263;SDS011;40178;53.042;6.406;2024-02-15T04:56:41;35.17;;;17.27;;
54263;SDS011;40178;53.042;6.406;2024-02-15T04:59:07;47.33;;;18.23;;
54263;SDS011;40178;53.042;6.406;2024-02-15T05:01:36;41.42;;;17.85;;
54263;SDS011;40178;53.042;6.406;2024-02-15T05:04:02;41.88;;;18.45;;
54263;SDS011;40178;53.042;6.406;2024-02-15T05:06:32;36.85;;;17.25;;
54263;SDS011;40178;53.042;6.406;2024-02-15T05:08:58;40.58;;;18.63;;
54263;SDS011;40178;53.042;6.406;2024-02-15T05:11:25;38.90;;;18.75;;
54263;SDS011;40178;53.042;6.406;2024-02-15T05:13:51;43.78;;;19.88;;
54263;SDS011;40178;53.042;6.406;2024-02-15T05:16:17;43.10;;;18.90;;
54263;SDS011;40178;53.042;6.406;2024-02-15T05:18:43;39.08;;;19.90;;
54263;SDS011;40178;53.042;6.406;2024-02-15T05:21:10;48.00;;;19.55;;
54263;SDS011;40178;53.042;6.406;2024-02-15T05:23:36;44.28;;;19.75;;
54263;SDS011;40178;53.042;6.406;2024-02-15T05:26:04;43.42;;;19.75;;
54263;SDS011;40178;53.042;6.406;2024-02-15T05:28:30;42.00;;;19.02;;
54263;SDS011;40178;53.042;6.406;2024-02-15T05:31:18;50.17;;;20.40;;
54263;SDS011;40178;53.042;6.406;2024-02-15T05:33:48;46.20;;;21.85;;
54263;SDS011;40178;53.042;6.406;2024-02-15T05:36:18;47.00;;;21.17;;
54263;SDS011;40178;53.042;6.406;2024-02-15T05:38:52;46.90;;;21.83;;
54263;SDS011;40178;53.042;6.406;2024-02-15T05:41:19;51.72;;;22.30;;
54263;SDS011;40178;53.042;6.406;2024-02-15T05:43:49;44.88;;;20.92;;
54263;SDS011;40178;53.042;6.406;2024-02-15T05:46:17;46.05;;;21.95;;
54263;SDS011;40178;53.042;6.406;2024-02-15T05:48:43;46.05;;;21.70;;
54263;SDS011;40178;53.042;6.406;2024-02-15T05:51:09;46.10;;;20.40;;
54263;SDS011;40178;53.042;6.406;2024-02-15T05:53:35;48.63;;;21.73;;
54263;SDS011;40178;53.042;6.406;2024-02-15T05:56:01;51.70;;;22.52;;
54263;SDS011;40178;53.042;6.406;2024-02-15T05:58:32;49.28;;;22.63;;
54263;SDS011;40178;53.042;6.406;2024-02-15T06:00:58;47.80;;;21.88;;
54263;SDS011;40178;53.042;6.406;2024-02-15T06:03:28;44.00;;;21.65;;
54263;SDS011;40178;53.042;6.406;2024-02-15T06:05:54;47.17;;;22.85;;
54263;SDS011;40178;53.042;6.406;2024-02-15T06:08:27;52.75;;;23.00;;
54263;SDS011;40178;53.042;6.406;2024-02-15T06:10:56;46.72;;;22.10;;
54263;SDS011;40178;53.042;6.406;2024-02-15T06:13:22;50.70;;;22.05;;
54263;SDS011;40178;53.042;6.406;2024-02-15T06:15:49;51.58;;;23.10;;
54263;SDS011;40178;53.042;6.406;2024-02-15T06:18:23;52.83;;;23.80;;
54263;SDS011;40178;53.042;6.406;2024-02-15T06:20:56;50.58;;;22.05;;
54263;SDS011;40178;53.042;6.406;2024-02-15T06:23:22;53.50;;;23.30;;
54263;SDS011;40178;53.042;6.406;2024-02-15T06:25:50;49.92;;;21.35;;
54263;SDS011;40178;53.042;6.406;2024-02-15T06:28:21;49.55;;;22.17;;
54263;SDS011;40178;53.042;6.406;2024-02-15T06:31:07;53.08;;;24.45;;
54263;SDS011;40178;53.042;6.406;2024-02-15T06:33:52;47.85;;;21.67;;
54263;SDS011;40178;53.042;6.406;2024-02-15T06:36:49;47.05;;;21.45;;
54263;SDS011;40178;53.042;6.406;2024-02-15T06:39:34;53.28;;;23.73;;
54263;SDS011;40178;53.042;6.406;2024-02-15T06:42:03;56.50;;;23.27;;
54263;SDS011;40178;53.042;6.406;2024-02-15T06:44:29;43.28;;;22.73;;
54263;SDS011;40178;53.042;6.406;2024-02-15T06:46:55;50.42;;;23.52;;
54263;SDS011;40178;53.042;6.406;2024-02-15T06:49:21;52.05;;;22.30;;
54263;SDS011;40178;53.042;6.406;2024-02-15T06:51:49;44.00;;;20.35;;
54263;SDS011;40178;53.042;6.406;2024-02-15T06:54:16;52.53;;;24.10;;
54263;SDS011;40178;53.042;6.406;2024-02-15T06:56:43;51.95;;;23.38;;
54263;SDS011;40178;53.042;6.406;2024-02-15T06:59:11;50.78;;;21.48;;
54263;SDS011;40178;53.042;6.406;2024-02-15T07:01:41;49.67;;;23.58;;
54263;SDS011;40178;53.042;6.406;2024-02-15T07:04:08;51.88;;;22.58;;
54263;SDS011;40178;53.042;6.406;2024-02-15T07:06:37;52.53;;;23.45;;
54263;SDS011;40178;53.042;6.406;2024-02-15T07:09:03;43.15;;;21.58;;
54263;SDS011;40178;53.042;6.406;2024-02-15T07:11:32;40.67;;;20.77;;
54263;SDS011;40178;53.042;6.406;2024-02-15T07:14:01;49.10;;;22.80;;
54263;SDS011;40178;53.042;6.406;2024-02-15T07:16:29;45.15;;;21.92;;
54263;SDS011;40178;53.042;6.406;2024-02-15T07:18:55;53.00;;;21.42;;
54263;SDS011;40178;53.042;6.406;2024-02-15T07:21:21;46.72;;;21.95;;
54263;SDS011;40178;53.042;6.406;2024-02-15T07:23:52;51.70;;;21.95;;
54263;SDS011;40178;53.042;6.406;2024-02-15T07:26:19;50.08;;;21.42;;
54263;SDS011;40178;53.042;6.406;2024-02-15T07:28:48;45.85;;;21.38;;
54263;SDS011;40178;53.042;6.406;2024-02-15T07:31:15;44.97;;;21.20;;
54263;SDS011;40178;53.042;6.406;2024-02-15T07:33:41;40.67;;;19.38;;
54263;SDS011;40178;53.042;6.406;2024-02-15T07:36:08;45.92;;;22.23;;
54263;SDS011;40178;53.042;6.406;2024-02-15T07:38:34;42.20;;;19.13;;
54263;SDS011;40178;53.042;6.406;2024-02-15T07:40:59;40.05;;;19.40;;
54263;SDS011;40178;53.042;6.406;2024-02-15T07:43:25;45.50;;;19.52;;
54263;SDS011;40178;53.042;6.406;2024-02-15T07:45:51;42.65;;;18.90;;
54263;SDS011;40178;53.042;6.406;2024-02-15T07:48:17;42.00;;;20.00;;
54263;SDS011;40178;53.042;6.406;2024-02-15T07:50:43;42.78;;;18.60;;
54263;SDS011;40178;53.042;6.406;2024-02-15T07:53:09;40.97;;;17.67;;
54263;SDS011;40178;53.042;6.406;2024-02-15T07:55:36;37.30;;;17.67;;
54263;SDS011;40178;53.042;6.406;2024-02-15T07:58:03;43.17;;;18.55;;
54263;SDS011;40178;53.042;6.406;2024-02-15T08:00:30;37.78;;;18.05;;
54263;SDS011;40178;53.042;6.406;2024-02-15T08:02:55;37.00;;;17.98;;
54263;SDS011;40178;53.042;6.406;2024-02-15T08:05:22;37.80;;;17.88;;
54263;SDS011;40178;53.042;6.406;2024-02-15T08:07:48;32.60;;;16.17;;
54263;SDS011;40178;53.042;6.406;2024-02-15T08:10:14;38.58;;;17.85;;
54263;SDS011;40178;53.042;6.406;2024-02-15T08:12:44;35.35;;;16.25;;
54263;SDS011;40178;53.042;6.406;2024-02-15T08:15:11;34.95;;;17.52;;
54263;SDS011;40178;53.042;6.406;2024-02-15T08:17:46;33.45;;;15.90;;
54263;SDS011;40178;53.042;6.406;2024-02-15T08:20:11;32.90;;;15.38;;
54263;SDS011;40178;53.042;6.406;2024-02-15T08:22:38;30.20;;;14.63;;
54263;SDS011;40178;53.042;6.406;2024-02-15T08:25:08;31.58;;;14.85;;
54263;SDS011;40178;53.042;6.406;2024-02-15T08:27:39;33.42;;;16.08;;
54263;SDS011;40178;53.042;6.406;2024-02-15T08:30:13;33.92;;;15.57;;
54263;SDS011;40178;53.042;6.406;2024-02-15T08:32:42;31.10;;;14.85;;
54263;SDS011;40178;53.042;6.406;2024-02-15T08:35:08;29.40;;;14.68;;
54263;SDS011;40178;53.042;6.406;2024-02-15T08:37:35;34.45;;;15.82;;
54263;SDS011;40178;53.042;6.406;2024-02-15T08:40:04;33.95;;;15.48;;
54263;SDS011;40178;53.042;6.406;2024-02-15T08:42:37;31.42;;;15.80;;
54263;SDS011;40178;53.042;6.406;2024-02-15T08:45:04;36.58;;;16.38;;
54263;SDS011;40178;53.042;6.406;2024-02-15T08:47:30;37.63;;;16.92;;
54263;SDS011;40178;53.042;6.406;2024-02-15T08:49:56;33.08;;;14.55;;
54263;SDS011;40178;53.042;6.406;2024-02-15T08:52:23;34.70;;;16.65;;
54263;SDS011;40178;53.042;6.406;2024-02-15T08:54:51;38.45;;;17.30;;
54263;SDS011;40178;53.042;6.406;2024-02-15T08:57:17;34.78;;;17.90;;
54263;SDS011;40178;53.042;6.406;2024-02-15T08:59:44;38.08;;;17.27;;
54263;SDS011;40178;53.042;6.406;2024-02-15T09:02:09;33.08;;;15.70;;
54263;SDS011;40178;53.042;6.406;2024-02-15T09:04:35;43.22;;;18.23;;
54263;SDS011;40178;53.042;6.406;2024-02-15T09:07:01;32.65;;;15.60;;
54263;SDS011;40178;53.042;6.406;2024-02-15T09:09:29;35.08;;;17.10;;
54263;SDS011;40178;53.042;6.406;2024-02-15T09:11:56;39.05;;;18.02;;
54263;SDS011;40178;53.042;6.406;2024-02-15T09:14:22;35.53;;;18.10;;
54263;SDS011;40178;53.042;6.406;2024-02-15T09:16:47;33.13;;;16.45;;
54263;SDS011;40178;53.042;6.406;2024-02-15T09:19:13;30.88;;;16.27;;
54263;SDS011;40178;53.042;6.406;2024-02-15T09:21:39;36.17;;;17.63;;
54263;SDS011;40178;53.042;6.406;2024-02-15T09:24:08;38.58;;;18.02;;
54263;SDS011;40178;53.042;6.406;2024-02-15T09:26:33;35.45;;;17.73;;
54263;SDS011;40178;53.042;6.406;2024-02-15T09:28:59;33.50;;;16.33;;
54263;SDS011;40178;53.042;6.406;2024-02-15T09:31:27;34.78;;;16.33;;
54263;SDS011;40178;53.042;6.406;2024-02-15T09:33:53;31.10;;;15.50;;
54263;SDS011;40178;53.042;6.406;2024-02-15T09:36:19;30.77;;;16.13;;
54263;SDS011;40178;53.042;6.406;2024-02-15T09:38:45;30.63;;;14.25;;
54263;SDS011;40178;53.042;6.406;2024-02-15T09:41:11;33.17;;;14.40;;
54263;SDS011;40178;53.042;6.406;2024-02-15T09:43:37;29.85;;;13.85;;
54263;SDS011;40178;53.042;6.406;2024-02-15T09:46:03;29.50;;;14.50;;
54263;SDS011;40178;53.042;6.406;2024-02-15T09:48:29;25.25;;;13.23;;
54263;SDS011;40178;53.042;6.406;2024-02-15T09:50:56;27.90;;;13.05;;
54263;SDS011;40178;53.042;6.406;2024-02-15T09:53:23;28.88;;;12.70;;
54263;SDS011;40178;53.042;6.406;2024-02-15T09:55:54;26.15;;;12.82;;
54263;SDS011;40178;53.042;6.406;2024-02-15T09:58:20;25.92;;;12.48;;
54263;SDS011;40178;53.042;6.406;2024-02-15T10:00:50;27.35;;;12.20;;
54263;SDS011;40178;53.042;6.406;2024-02-15T10:03:16;21.33;;;11.07;;
54263;SDS011;40178;53.042;6.406;2024-02-15T10:05:47;24.65;;;12.30;;
54263;SDS011;40178;53.042;6.406;2024-02-15T10:08:14;23.73;;;11.85;;
54263;SDS011;40178;53.042;6.406;2024-02-15T10:10:40;22.50;;;11.38;;
54263;SDS011;40178;53.042;6.406;2024-02-15T10:13:06;19.85;;;10.52;;
54263;SDS011;40178;53.042;6.406;2024-02-15T10:15:38;20.17;;;10.80;;
54263;SDS011;40178;53.042;6.406;2024-02-15T10:18:06;20.08;;;11.02;;
54263;SDS011;40178;53.042;6.406;2024-02-15T10:20:34;20.08;;;10.38;;
54263;SDS011;40178;53.042;6.406;2024-02-15T10:25:33;19.25;;;10.27;;
54263;SDS011;40178;53.042;6.406;2024-02-15T10:28:02;18.73;;;9.63;;
54263;SDS011;40178;53.042;6.406;2024-02-15T10:30:35;16.77;;;9.75;;
54263;SDS011;40178;53.042;6.406;2024-02-15T10:33:02;18.00;;;9.57;;
54263;SDS011;40178;53.042;6.406;2024-02-15T10:35:28;19.02;;;9.98;;
54263;SDS011;40178;53.042;6.406;2024-02-15T10:38:04;17.27;;;9.15;;
54263;SDS011;40178;53.042;6.406;2024-02-15T10:40:33;16.20;;;9.35;;
54263;SDS011;40178;53.042;6.406;2024-02-15T10:42:58;14.57;;;8.05;;
54263;SDS011;40178;53.042;6.406;2024-02-15T10:45:27;14.85;;;8.38;;
54263;SDS011;40178;53.042;6.406;2024-02-15T10:47:55;15.02;;;8.20;;
54263;SDS011;40178;53.042;6.406;2024-02-15T10:50:22;14.02;;;7.68;;
54263;SDS011;40178;53.042;6.406;2024-02-15T10:52:55;12.77;;;7.20;;
54263;SDS011;40178;53.042;6.406;2024-02-15T10:55:38;14.30;;;7.65;;
54263;SDS011;40178;53.042;6.406;2024-02-15T10:58:13;12.70;;;7.45;;
54263;SDS011;40178;53.042;6.406;2024-02-15T11:00:44;11.95;;;6.97;;
54263;SDS011;40178;53.042;6.406;2024-02-15T11:03:11;12.48;;;7.03;;
54263;SDS011;40178;53.042;6.406;2024-02-15T11:05:49;12.48;;;7.22;;
54263;SDS011;40178;53.042;6.406;2024-02-15T11:08:16;13.23;;;6.93;;
54263;SDS011;40178;53.042;6.406;2024-02-15T11:10:42;10.68;;;6.05;;
54263;SDS011;40178;53.042;6.406;2024-02-15T11:13:08;13.10;;;6.80;;
54263;SDS011;40178;53.042;6.406;2024-02-15T11:18:00;12.57;;;6.80;;
54263;SDS011;40178;53.042;6.406;2024-02-15T11:22:59;9.23;;;5.30;;
54263;SDS011;40178;53.042;6.406;2024-02-15T11:25:34;9.98;;;5.35;;
54263;SDS011;40178;53.042;6.406;2024-02-15T11:28:34;8.55;;;4.82;;
54263;SDS011;40178;53.042;6.406;2024-02-15T11:31:02;8.48;;;5.03;;
54263;SDS011;40178;53.042;6.406;2024-02-15T11:33:31;8.95;;;4.93;;
54263;SDS011;40178;53.042;6.406;2024-02-15T11:36:13;11.63;;;4.90;;
54263;SDS011;40178;53.042;6.406;2024-02-15T11:38:39;7.20;;;4.28;;
54263;SDS011;40178;53.042;6.406;2024-02-15T11:41:06;8.30;;;4.28;;
54263;SDS011;40178;53.042;6.406;2024-02-15T11:46:23;7.65;;;4.40;;
54263;SDS011;40178;53.042;6.406;2024-02-15T11:48:51;7.28;;;4.40;;
54263;SDS011;40178;53.042;6.406;2024-02-15T11:54:08;7.00;;;4.20;;
54263;SDS011;40178;53.042;6.406;2024-02-15T11:59:09;7.28;;;3.97;;
54263;SDS011;40178;53.042;6.406;2024-02-15T12:01:43;7.63;;;4.28;;
54263;SDS011;40178;53.042;6.406;2024-02-15T12:04:28;8.88;;;4.50;;
54263;SDS011;40178;53.042;6.406;2024-02-15T12:09:58;7.53;;;4.70;;
54263;SDS011;40178;53.042;6.406;2024-02-15T12:12:52;9.52;;;5.25;;
54263;SDS011;40178;53.042;6.406;2024-02-15T12:15:37;11.20;;;5.43;;
54263;SDS011;40178;53.042;6.406;2024-02-15T12:18:21;11.80;;;6.82;;
54263;SDS011;40178;53.042;6.406;2024-02-15T12:21:05;10.85;;;6.82;;
54263;SDS011;40178;53.042;6.406;2024-02-15T12:23:32;15.65;;;7.70;;
54263;SDS011;40178;53.042;6.406;2024-02-15T12:26:00;14.50;;;8.18;;
54263;SDS011;40178;53.042;6.406;2024-02-15T12:28:28;14.20;;;7.82;;
54263;SDS011;40178;53.042;6.406;2024-02-15T12:30:55;15.30;;;9.07;;
54263;SDS011;40178;53.042;6.406;2024-02-15T12:33:24;17.88;;;9.48;;
54263;SDS011;40178;53.042;6.406;2024-02-15T12:35:52;15.80;;;9.18;;
54263;SDS011;40178;53.042;6.406;2024-02-15T12:38:32;14.02;;;9.20;;
54263;SDS011;40178;53.042;6.406;2024-02-15T12:41:01;19.40;;;10.20;;
54263;SDS011;40178;53.042;6.406;2024-02-15T12:43:28;18.95;;;9.93;;
54263;SDS011;40178;53.042;6.406;2024-02-15T12:45:53;23.67;;;11.30;;
54263;SDS011;40178;53.042;6.406;2024-02-15T12:48:21;19.85;;;11.15;;
54263;SDS011;40178;53.042;6.406;2024-02-15T12:50:47;20.55;;;10.77;;
54263;SDS011;40178;53.042;6.406;2024-02-15T12:53:20;19.27;;;11.63;;
54263;SDS011;40178;53.042;6.406;2024-02-15T12:55:52;21.00;;;10.43;;
54263;SDS011;40178;53.042;6.406;2024-02-15T13:00:49;18.25;;;11.07;;
54263;SDS011;40178;53.042;6.406;2024-02-15T13:03:20;19.88;;;11.50;;
54263;SDS011;40178;53.042;6.406;2024-02-15T13:05:46;21.33;;;11.25;;
54263;SDS011;40178;53.042;6.406;2024-02-15T13:08:13;21.00;;;11.60;;
54263;SDS011;40178;53.042;6.406;2024-02-15T13:10:40;22.67;;;12.40;;
54263;SDS011;40178;53.042;6.406;2024-02-15T13:13:05;22.20;;;11.95;;
54263;SDS011;40178;53.042;6.406;2024-02-15T13:15:31;22.25;;;10.73;;
54263;SDS011;40178;53.042;6.406;2024-02-15T13:18:01;20.77;;;11.20;;
54263;SDS011;40178;53.042;6.406;2024-02-15T13:20:30;21.75;;;10.95;;
54263;SDS011;40178;53.042;6.406;2024-02-15T13:23:00;18.90;;;10.40;;
54263;SDS011;40178;53.042;6.406;2024-02-15T13:25:31;20.42;;;10.52;;
54263;SDS011;40178;53.042;6.406;2024-02-15T13:27:57;19.98;;;10.20;;
54263;SDS011;40178;53.042;6.406;2024-02-15T13:30:22;17.42;;;9.77;;
54263;SDS011;40178;53.042;6.406;2024-02-15T13:32:52;19.17;;;9.65;;
54263;SDS011;40178;53.042;6.406;2024-02-15T13:35:19;17.60;;;10.18;;
54263;SDS011;40178;53.042;6.406;2024-02-15T13:37:51;18.48;;;9.98;;
54263;SDS011;40178;53.042;6.406;2024-02-15T13:40:23;18.42;;;9.25;;
54263;SDS011;40178;53.042;6.406;2024-02-15T13:42:54;15.75;;;9.23;;
54263;SDS011;40178;53.042;6.406;2024-02-15T13:45:23;17.20;;;9.45;;
54263;SDS011;40178;53.042;6.406;2024-02-15T13:47:55;16.77;;;9.25;;
54263;SDS011;40178;53.042;6.406;2024-02-15T13:50:22;17.50;;;9.85;;
54263;SDS011;40178;53.042;6.406;2024-02-15T13:52:49;15.00;;;8.98;;
54263;SDS011;40178;53.042;6.406;2024-02-15T13:55:15;17.08;;;9.65;;
54263;SDS011;40178;53.042;6.406;2024-02-15T13:57:43;15.00;;;9.55;;
54263;SDS011;40178;53.042;6.406;2024-02-15T14:00:11;16.42;;;8.73;;
54263;SDS011;40178;53.042;6.406;2024-02-15T14:02:42;16.40;;;9.10;;
54263;SDS011;40178;53.042;6.406;2024-02-15T14:05:08;18.00;;;8.73;;
54263;SDS011;40178;53.042;6.406;2024-02-15T14:07:36;19.25;;;9.90;;
54263;SDS011;40178;53.042;6.406;2024-02-15T14:10:03;16.20;;;9.90;;
54263;SDS011;40178;53.042;6.406;2024-02-15T14:12:29;15.90;;;10.02;;
54263;SDS011;40178;53.042;6.406;2024-02-15T14:14:55;19.58;;;9.82;;
54263;SDS011;40178;53.042;6.406;2024-02-15T14:17:21;19.42;;;10.90;;
54263;SDS011;40178;53.042;6.406;2024-02-15T14:19:48;25.63;;;11.05;;
54263;SDS011;40178;53.042;6.406;2024-02-15T14:22:14;20.80;;;11.20;;
54263;SDS011;40178;53.042;6.406;2024-02-15T14:24:44;24.05;;;11.45;;
54263;SDS011;40178;53.042;6.406;2024-02-15T14:27:10;22.05;;;11.35;;
54263;SDS011;40178;53.042;6.406;2024-02-15T14:29:36;25.60;;;12.07;;
54263;SDS011;40178;53.042;6.406;2024-02-15T14:32:10;24.63;;;11.95;;
54263;SDS011;40178;53.042;6.406;2024-02-15T14:34:54;20.65;;;12.45;;
54263;SDS011;40178;53.042;6.406;2024-02-15T14:37:21;25.77;;;12.18;;
54263;SDS011;40178;53.042;6.406;2024-02-15T14:39:47;24.67;;;11.98;;
54263;SDS011;40178;53.042;6.406;2024-02-15T14:42:13;26.25;;;13.05;;
54263;SDS011;40178;53.042;6.406;2024-02-15T14:44:39;22.98;;;11.68;;
54263;SDS011;40178;53.042;6.406;2024-02-15T14:47:05;23.90;;;12.32;;
54263;SDS011;40178;53.042;6.406;2024-02-15T14:49:31;25.80;;;12.50;;
54263;SDS011;40178;53.042;6.406;2024-02-15T14:51:56;24.65;;;12.60;;